createdAt,value
2023-03-04T00:00:33.803Z,3.60
2023-03-04T00:03:01.360Z,3.50
2023-03-04T00:05:28.907Z,3.70
2023-03-04T00:07:56.398Z,3.33
2023-03-04T00:10:24.458Z,3.43
2023-03-04T00:12:51.964Z,3.53
2023-03-04T00:15:19.582Z,3.83
2023-03-04T00:17:47.112Z,3.70
2023-03-04T00:20:14.777Z,4.23
2023-03-04T00:22:42.285Z,3.53
2023-03-04T00:25:09.960Z,3.17
2023-03-04T00:27:37.450Z,3.43
2023-03-04T00:30:06.163Z,3.10
2023-03-04T00:32:34.120Z,3.37
2023-03-04T00:35:01.729Z,3.63
2023-03-04T00:37:29.231Z,3.37
2023-03-04T00:39:56.774Z,4.10
2023-03-04T00:42:24.306Z,3.10
2023-03-04T00:44:51.891Z,4.10
2023-03-04T00:47:19.436Z,3.73
2023-03-04T00:49:47.076Z,3.97
2023-03-04T00:52:14.581Z,3.30
2023-03-04T00:54:42.144Z,3.47
2023-03-04T00:57:09.619Z,3.93
2023-03-04T00:59:37.211Z,3.37
2023-03-04T01:02:04.943Z,3.50
2023-03-04T01:04:32.518Z,4.00
2023-03-04T01:06:59.997Z,3.53
2023-03-04T01:09:27.580Z,3.73
2023-03-04T01:11:55.094Z,3.33
2023-03-04T01:14:22.717Z,3.50
2023-03-04T01:16:50.577Z,4.13
2023-03-04T01:19:18.207Z,3.67
2023-03-04T01:21:45.767Z,4.43
2023-03-04T01:24:13.328Z,4.20
2023-03-04T01:26:40.848Z,4.07
2023-03-04T01:29:08.432Z,4.10
2023-03-04T01:31:35.958Z,3.07
2023-03-04T01:34:03.585Z,4.23
2023-03-04T01:36:31.270Z,3.63
2023-03-04T01:38:58.825Z,4.37
2023-03-04T01:41:26.979Z,4.47
2023-03-04T01:43:56.442Z,3.73
2023-03-04T01:46:24.464Z,3.20
2023-03-04T01:48:52.055Z,3.53
2023-03-04T01:51:20.728Z,4.23
2023-03-04T01:53:48.860Z,3.57
2023-03-04T01:56:19.668Z,4.17
2023-03-04T01:59:06.704Z,4.60
2023-03-04T02:01:34.479Z,4.77
2023-03-04T02:04:02.150Z,3.80
2023-03-04T02:06:29.843Z,3.70
2023-03-04T02:08:57.377Z,4.50
2023-03-04T02:11:25.385Z,3.97
2023-03-04T02:13:53.322Z,4.43
2023-03-04T02:16:20.939Z,3.50
2023-03-04T02:18:48.684Z,3.97
2023-03-04T02:21:20.394Z,3.67
2023-03-04T02:23:54.458Z,4.30
2023-03-04T02:26:22.004Z,4.57
2023-03-04T02:28:50.444Z,3.83
2023-03-04T02:31:23.437Z,3.77
2023-03-04T02:33:52.177Z,3.80
2023-03-04T02:36:19.694Z,3.70
2023-03-04T02:38:47.276Z,4.17
2023-03-04T02:41:16.886Z,3.70
2023-03-04T02:43:45.485Z,4.03
2023-03-04T02:46:13.471Z,4.13
2023-03-04T02:48:41.127Z,3.53
2023-03-04T02:51:08.641Z,3.43
2023-03-04T02:53:36.214Z,3.40
2023-03-04T02:56:03.736Z,4.07
2023-03-04T02:58:31.377Z,3.50
2023-03-04T03:00:59.220Z,2.77
2023-03-04T03:03:26.768Z,3.80
2023-03-04T03:05:54.548Z,4.20
2023-03-04T03:08:22.065Z,3.80
2023-03-04T03:10:49.567Z,3.37
2023-03-04T03:13:17.200Z,4.23
2023-03-04T03:15:44.672Z,3.53
2023-03-04T03:18:12.226Z,2.87
2023-03-04T03:20:39.876Z,2.93
2023-03-04T03:23:07.448Z,3.40
2023-03-04T03:25:34.956Z,3.17
2023-03-04T03:28:02.524Z,3.57
2023-03-04T03:30:30.037Z,3.77
2023-03-04T03:32:57.599Z,3.30
2023-03-04T03:35:25.156Z,3.60
2023-03-04T03:37:52.784Z,3.17
2023-03-04T03:40:20.326Z,3.17
2023-03-04T03:42:50.463Z,2.70
2023-03-04T03:45:18.015Z,4.43
2023-03-04T03:47:45.484Z,3.27
2023-03-04T03:50:13.386Z,3.63
2023-03-04T03:52:40.917Z,3.60
2023-03-04T03:55:08.680Z,3.37
2023-03-04T03:57:36.186Z,2.80
2023-03-04T04:00:04.672Z,3.00
2023-03-04T04:02:32.268Z,3.20
2023-03-04T04:04:59.929Z,2.93
2023-03-04T04:07:27.422Z,3.40
2023-03-04T04:09:54.975Z,3.87
2023-03-04T04:12:22.557Z,4.07
2023-03-04T04:14:50.138Z,2.63
2023-03-04T04:17:17.659Z,3.27
2023-03-04T04:19:45.229Z,2.70
2023-03-04T04:22:14.880Z,3.80
2023-03-04T04:24:42.477Z,3.20
2023-03-04T04:27:10.034Z,3.00
2023-03-04T04:29:37.706Z,4.07
2023-03-04T04:32:05.470Z,3.57
2023-03-04T04:34:33.114Z,2.60
2023-03-04T04:37:00.656Z,2.93
2023-03-04T04:39:28.195Z,3.33
2023-03-04T04:41:55.693Z,3.33
2023-03-04T04:44:23.213Z,2.97
2023-03-04T04:46:50.811Z,3.13
2023-03-04T04:49:18.508Z,3.03
2023-03-04T04:51:46.114Z,2.53
2023-03-04T04:54:14.780Z,2.90
2023-03-04T04:56:42.380Z,3.13
2023-03-04T04:59:09.972Z,2.77
2023-03-04T05:01:37.566Z,3.10
2023-03-04T05:04:05.327Z,3.23
2023-03-04T05:06:32.840Z,3.20
2023-03-04T05:09:00.434Z,2.63
2023-03-04T05:11:28.145Z,2.90
2023-03-04T05:13:55.781Z,2.70
2023-03-04T05:16:23.401Z,2.53
2023-03-04T05:18:50.937Z,3.23
2023-03-04T05:21:18.439Z,2.87
2023-03-04T05:23:45.979Z,3.00
2023-03-04T05:26:15.212Z,2.27
2023-03-04T05:28:42.751Z,2.80
2023-03-04T05:31:10.690Z,2.40
2023-03-04T05:33:38.661Z,2.70
2023-03-04T05:36:07.128Z,3.00
2023-03-04T05:38:35.142Z,2.30
2023-03-04T05:41:07.216Z,2.97
2023-03-04T05:43:35.421Z,2.70
2023-03-04T05:46:03.437Z,3.50
2023-03-04T05:48:31.384Z,2.50
2023-03-04T05:50:59.898Z,2.20
2023-03-04T05:53:27.797Z,2.93
2023-03-04T05:55:55.329Z,2.30
2023-03-04T05:58:23.217Z,2.97
2023-03-04T06:00:50.765Z,2.60
2023-03-04T06:03:19.698Z,2.63
2023-03-04T06:05:47.203Z,2.20
2023-03-04T06:08:15.014Z,2.97
2023-03-04T06:10:42.910Z,3.53
2023-03-04T06:13:10.787Z,3.03
2023-03-04T06:15:39.378Z,2.33
2023-03-04T06:18:10.082Z,3.07
2023-03-04T06:20:37.817Z,2.40
2023-03-04T06:23:05.965Z,2.60
2023-03-04T06:25:33.525Z,2.53
2023-03-04T06:28:01.003Z,3.67
2023-03-04T06:30:28.681Z,2.83
2023-03-04T06:32:56.348Z,2.90
2023-03-04T06:35:23.964Z,3.00
2023-03-04T06:37:51.478Z,3.03
2023-03-04T06:40:19.091Z,3.60
2023-03-04T06:42:46.601Z,2.13
2023-03-04T06:45:14.216Z,2.43
2023-03-04T06:47:41.720Z,2.23
2023-03-04T06:50:09.588Z,3.10
2023-03-04T06:52:37.096Z,2.37
2023-03-04T06:55:04.970Z,2.57
2023-03-04T06:57:32.509Z,2.60
2023-03-04T07:00:00.103Z,2.37
2023-03-04T07:02:27.602Z,3.07
2023-03-04T07:04:55.154Z,2.47
2023-03-04T07:07:22.620Z,2.20
2023-03-04T07:09:50.215Z,2.83
2023-03-04T07:12:17.747Z,2.70
2023-03-04T07:14:45.281Z,2.57
2023-03-04T07:17:12.945Z,2.57
2023-03-04T07:19:40.500Z,2.80
2023-03-04T07:22:08.281Z,3.17
2023-03-04T07:24:35.838Z,2.60
2023-03-04T07:27:03.473Z,2.13
2023-03-04T07:29:30.962Z,2.20
2023-03-04T07:31:58.526Z,2.27
2023-03-04T07:34:26.202Z,1.97
2023-03-04T07:36:53.738Z,2.50
2023-03-04T07:39:21.337Z,2.63
2023-03-04T07:41:48.859Z,2.13
2023-03-04T07:44:16.392Z,2.50
2023-03-04T07:46:43.927Z,2.33
2023-03-04T07:49:14.725Z,1.50
2023-03-04T07:51:42.356Z,2.77
2023-03-04T07:54:10.270Z,2.03
2023-03-04T07:56:37.856Z,1.93
2023-03-04T07:59:05.752Z,2.03
2023-03-04T08:01:34.767Z,2.23
2023-03-04T08:04:02.941Z,2.40
2023-03-04T08:06:30.750Z,2.47
2023-03-04T08:08:59.590Z,2.30
2023-03-04T08:11:28.011Z,2.30
2023-03-04T08:13:55.887Z,2.03
2023-03-04T08:16:24.437Z,2.17
2023-03-04T08:18:53.245Z,2.60
2023-03-04T08:21:21.360Z,2.17
2023-03-04T08:23:49.513Z,1.80
2023-03-04T08:26:21.670Z,3.30
2023-03-04T08:28:49.486Z,2.57
2023-03-04T08:31:18.042Z,2.20
2023-03-04T08:33:45.705Z,2.10
2023-03-04T08:36:13.799Z,2.13
2023-03-04T08:38:41.426Z,1.73
2023-03-04T08:41:08.990Z,2.07
2023-03-04T08:43:36.728Z,1.70
2023-03-04T08:46:04.305Z,2.10
2023-03-04T08:48:32.027Z,1.60
2023-03-04T08:50:59.574Z,1.53
2023-03-04T08:53:27.151Z,1.87
2023-03-04T08:55:54.610Z,1.37
2023-03-04T08:58:22.172Z,1.73
2023-03-04T09:00:50.103Z,2.07
2023-03-04T09:03:19.077Z,1.77
2023-03-04T09:05:47.526Z,1.60
2023-03-04T09:08:15.619Z,2.13
2023-03-04T09:10:43.094Z,1.90
2023-03-04T09:13:10.830Z,1.50
2023-03-04T09:15:39.275Z,2.10
2023-03-04T09:18:07.006Z,2.10
2023-03-04T09:20:34.513Z,1.67
2023-03-04T09:23:02.082Z,2.37
2023-03-04T09:25:29.733Z,1.70
2023-03-04T09:27:57.290Z,2.20
2023-03-04T09:30:43.193Z,2.20
2023-03-04T09:33:11.003Z,1.70
2023-03-04T09:35:38.804Z,1.30
2023-03-04T09:38:06.754Z,1.73
2023-03-04T09:40:39.027Z,1.80
2023-03-04T09:43:07.773Z,1.80
2023-03-04T09:45:37.869Z,1.93
2023-03-04T09:48:06.364Z,1.77
2023-03-04T09:50:34.703Z,1.73
2023-03-04T09:53:07.668Z,1.77
2023-03-04T09:55:39.475Z,1.27
2023-03-04T09:58:25.166Z,1.30
2023-03-04T10:00:55.452Z,1.83
2023-03-04T10:03:29.354Z,1.33
2023-03-04T10:06:13.593Z,1.53
2023-03-04T10:08:59.880Z,1.47
2023-03-04T10:11:33.660Z,1.60
2023-03-04T10:14:01.215Z,1.67
2023-03-04T10:16:43.360Z,1.53
2023-03-04T10:19:24.755Z,2.17
2023-03-04T10:21:53.124Z,1.60
2023-03-04T10:24:22.096Z,1.60
2023-03-04T10:26:53.027Z,1.43
2023-03-04T10:29:23.322Z,1.53
2023-03-04T10:31:51.590Z,2.17
2023-03-04T10:34:19.149Z,1.60
2023-03-04T10:36:52.646Z,1.83
2023-03-04T10:39:22.859Z,1.37
2023-03-04T10:41:59.002Z,1.60
2023-03-04T10:44:27.379Z,1.27
2023-03-04T10:46:56.313Z,1.80
2023-03-04T10:49:24.364Z,1.73
2023-03-04T10:51:57.258Z,1.73
2023-03-04T10:54:30.482Z,2.07
2023-03-04T10:57:05.786Z,2.07
2023-03-04T10:59:41.147Z,1.80
2023-03-04T11:02:11.755Z,1.90
2023-03-04T11:04:39.339Z,2.77
2023-03-04T11:07:15.853Z,1.40
2023-03-04T11:09:45.194Z,1.17
2023-03-04T11:12:13.994Z,1.23
2023-03-04T11:14:43.099Z,1.40
2023-03-04T11:17:16.371Z,1.30
2023-03-04T11:19:48.515Z,1.50
2023-03-04T11:22:17.053Z,1.50
2023-03-04T11:24:45.307Z,1.47
2023-03-04T11:27:26.453Z,1.17
2023-03-04T11:29:59.496Z,1.53
2023-03-04T11:32:32.766Z,1.67
2023-03-04T11:35:09.506Z,1.00
2023-03-04T11:37:41.289Z,1.10
2023-03-04T11:40:08.808Z,1.53
2023-03-04T11:42:39.414Z,1.60
2023-03-04T11:45:27.442Z,1.40
2023-03-04T11:48:01.916Z,1.70
2023-03-04T11:50:35.359Z,1.50
2023-03-04T11:53:14.415Z,1.53
2023-03-04T11:55:48.101Z,1.63
2023-03-04T11:58:42.492Z,1.40
2023-03-04T12:01:11.091Z,1.33
2023-03-04T12:04:23.801Z,1.10
2023-03-04T12:07:01.608Z,1.40
2023-03-04T12:09:48.525Z,1.40
2023-03-04T12:12:34.778Z,1.13
2023-03-04T12:15:29.358Z,1.17
2023-03-04T12:18:03.143Z,0.97
2023-03-04T12:20:30.721Z,1.30
2023-03-04T12:23:01.332Z,1.40
2023-03-04T12:25:40.153Z,1.63
2023-03-04T12:28:26.334Z,1.50
2023-03-04T12:31:11.819Z,1.17
2023-03-04T12:33:58.157Z,1.57
2023-03-04T12:36:25.714Z,1.10
2023-03-04T12:39:08.534Z,1.20
2023-03-04T12:41:39.015Z,0.93
2023-03-04T12:44:22.319Z,1.37
2023-03-04T12:47:22.266Z,1.17
2023-03-04T12:50:19.354Z,1.40
2023-03-04T12:52:57.055Z,1.20
2023-03-04T12:55:27.251Z,1.27
2023-03-04T12:57:55.802Z,1.80
2023-03-04T13:00:32.526Z,1.60
2023-03-04T13:03:17.562Z,1.30
2023-03-04T13:05:45.188Z,1.20
2023-03-04T13:08:27.209Z,1.57
2023-03-04T13:11:04.898Z,0.97
2023-03-04T13:13:35.219Z,1.27
2023-03-04T13:16:07.354Z,1.27
2023-03-04T13:18:38.046Z,1.73
2023-03-04T13:21:08.452Z,1.23
2023-03-04T13:23:36.060Z,1.50
2023-03-04T13:26:03.559Z,1.33
2023-03-04T13:28:32.856Z,1.80
2023-03-04T13:31:20.782Z,1.30
2023-03-04T13:33:50.047Z,1.50
2023-03-04T13:36:27.212Z,1.53
2023-03-04T13:38:59.148Z,1.50
2023-03-04T13:41:31.081Z,1.50
2023-03-04T13:44:02.506Z,1.30
2023-03-04T13:46:31.918Z,1.30
2023-03-04T13:48:59.595Z,1.40
2023-03-04T13:51:34.644Z,1.20
2023-03-04T13:54:02.182Z,1.30
2023-03-04T13:56:43.018Z,1.40
2023-03-04T13:59:22.868Z,1.70
2023-03-04T14:01:50.384Z,1.40
2023-03-04T14:04:22.138Z,1.30
2023-03-04T14:06:49.999Z,1.43
2023-03-04T14:09:20.602Z,1.17
2023-03-04T14:11:49.292Z,1.33
2023-03-04T14:14:21.349Z,1.40
2023-03-04T14:16:56.889Z,1.37
2023-03-04T14:19:32.092Z,1.80
2023-03-04T14:22:00.835Z,1.57
2023-03-04T14:24:28.327Z,1.50
2023-03-04T14:27:11.193Z,1.40
2023-03-04T14:29:38.922Z,2.00
2023-03-04T14:32:07.287Z,2.03
2023-03-04T14:34:37.045Z,1.70
2023-03-04T14:37:19.138Z,1.77
2023-03-04T14:39:48.876Z,1.83
2023-03-04T14:42:16.920Z,1.80
2023-03-04T14:44:49.769Z,1.70
2023-03-04T14:47:20.379Z,1.80
2023-03-04T14:49:48.354Z,1.53
2023-03-04T14:52:34.334Z,2.40
2023-03-04T14:55:20.723Z,1.73
2023-03-04T14:57:50.483Z,1.60
2023-03-04T15:00:21.107Z,1.73
2023-03-04T15:02:50.422Z,1.70
2023-03-04T15:05:31.878Z,1.80
2023-03-04T15:08:22.702Z,1.70
2023-03-04T15:10:58.017Z,1.40
2023-03-04T15:13:42.120Z,2.00
2023-03-04T15:16:11.030Z,1.47
2023-03-04T15:18:38.666Z,1.30
2023-03-04T15:21:26.006Z,1.47
2023-03-04T15:23:53.568Z,1.43
2023-03-04T15:26:21.025Z,1.57
2023-03-04T15:28:48.645Z,1.53
2023-03-04T15:31:17.413Z,1.30
2023-03-04T15:33:45.089Z,1.53
2023-03-04T15:36:14.576Z,1.40
2023-03-04T15:38:43.006Z,1.30
2023-03-04T15:41:12.033Z,1.10
2023-03-04T15:43:39.583Z,1.40
2023-03-04T15:46:07.115Z,1.30
2023-03-04T15:48:34.709Z,1.57
2023-03-04T15:51:02.701Z,2.00
2023-03-04T15:53:44.658Z,2.70
2023-03-04T15:56:17.122Z,1.73
2023-03-04T15:58:44.947Z,1.53
2023-03-04T16:01:15.548Z,1.70
2023-03-04T16:03:43.165Z,1.37
2023-03-04T16:06:12.129Z,2.07
2023-03-04T16:08:40.388Z,2.30
2023-03-04T16:11:11.327Z,1.80
2023-03-04T16:13:38.890Z,1.50
2023-03-04T16:16:06.595Z,1.77
2023-03-04T16:18:34.162Z,1.90
2023-03-04T16:21:02.296Z,2.93
2023-03-04T16:23:29.991Z,1.80
2023-03-04T16:25:57.563Z,1.93
2023-03-04T16:28:25.111Z,2.20
2023-03-04T16:30:52.686Z,1.77
2023-03-04T16:33:20.278Z,1.90
2023-03-04T16:35:49.629Z,1.77
2023-03-04T16:38:21.214Z,1.67
2023-03-04T16:40:48.848Z,2.43
2023-03-04T16:43:16.341Z,1.30
2023-03-04T16:45:43.875Z,2.20
2023-03-04T16:48:11.497Z,1.83
2023-03-04T16:50:39.382Z,1.77
2023-03-04T16:53:14.375Z,2.30
2023-03-04T16:55:41.897Z,2.47
2023-03-04T16:58:10.033Z,2.40
2023-03-04T17:00:37.654Z,1.97
2023-03-04T17:03:05.237Z,2.87
2023-03-04T17:05:33.178Z,1.87
2023-03-04T17:08:00.662Z,2.37
2023-03-04T17:10:28.255Z,2.43
2023-03-04T17:12:55.872Z,2.30
2023-03-04T17:15:23.398Z,2.07
2023-03-04T17:17:50.902Z,2.63
2023-03-04T17:20:19.132Z,3.00
2023-03-04T17:22:46.790Z,2.47
2023-03-04T17:25:14.764Z,2.77
2023-03-04T17:27:42.658Z,2.63
2023-03-04T17:30:11.783Z,2.40
2023-03-04T17:32:40.030Z,2.37
2023-03-04T17:35:08.659Z,2.80
2023-03-04T17:37:36.452Z,2.17
2023-03-04T17:40:05.596Z,3.07
2023-03-04T17:42:33.151Z,2.63
2023-03-04T17:45:00.755Z,2.50
2023-03-04T17:47:28.288Z,2.77
2023-03-04T17:49:55.783Z,2.17
2023-03-04T17:52:23.344Z,2.43
2023-03-04T17:54:50.930Z,2.77
2023-03-04T17:57:18.410Z,2.90
2023-03-04T17:59:46.100Z,2.40
2023-03-04T18:02:16.700Z,3.43
2023-03-04T18:04:44.279Z,2.90
2023-03-04T18:07:11.750Z,2.93
2023-03-04T18:09:39.421Z,2.60
2023-03-04T18:12:07.124Z,2.70
2023-03-04T18:14:34.970Z,2.83
2023-03-04T18:17:02.521Z,3.00
2023-03-04T18:19:30.116Z,3.13
2023-03-04T18:21:57.642Z,2.00
2023-03-04T18:24:25.173Z,2.87
2023-03-04T18:26:52.875Z,3.00
2023-03-04T18:29:20.508Z,2.80
2023-03-04T18:31:48.084Z,2.43
2023-03-04T18:34:15.653Z,2.37
2023-03-04T18:36:43.281Z,2.10
2023-03-04T18:39:10.810Z,2.30
2023-03-04T18:41:38.343Z,2.03
2023-03-04T18:44:06.074Z,2.47
2023-03-04T18:46:51.124Z,2.50
2023-03-04T18:49:19.467Z,2.30
2023-03-04T18:51:46.967Z,2.07
2023-03-04T18:54:14.590Z,1.77
2023-03-04T18:56:44.184Z,2.53
2023-03-04T18:59:16.184Z,1.80
2023-03-04T19:01:44.085Z,2.40
2023-03-04T19:04:12.372Z,2.00
2023-03-04T19:06:40.018Z,2.27
2023-03-04T19:09:07.590Z,2.50
2023-03-04T19:11:35.189Z,2.50
2023-03-04T19:14:02.730Z,2.50
2023-03-04T19:16:30.474Z,1.93
2023-03-04T19:18:58.041Z,2.07
2023-03-04T19:21:25.613Z,1.77
2023-03-04T19:23:53.094Z,2.03
2023-03-04T19:26:20.733Z,2.60
2023-03-04T19:28:48.257Z,2.30
2023-03-04T19:31:15.828Z,2.37
2023-03-04T19:33:46.338Z,2.67
2023-03-04T19:36:13.909Z,2.30
2023-03-04T19:38:41.458Z,2.10
2023-03-04T19:41:10.324Z,2.43
2023-03-04T19:43:37.848Z,2.80
2023-03-04T19:46:06.195Z,2.33
2023-03-04T19:48:34.205Z,2.70
2023-03-04T19:51:01.826Z,2.90
2023-03-04T19:53:29.410Z,3.00
2023-03-04T19:55:57.020Z,2.30
2023-03-04T19:58:24.562Z,2.53
2023-03-04T20:00:52.235Z,3.03
2023-03-04T20:03:19.786Z,2.33
2023-03-04T20:05:47.987Z,2.63
2023-03-04T20:08:15.500Z,2.00
2023-03-04T20:10:43.055Z,1.80
2023-03-04T20:13:10.585Z,2.20
2023-03-04T20:15:42.257Z,2.53
2023-03-04T20:18:09.871Z,2.10
2023-03-04T20:20:38.609Z,3.00
2023-03-04T20:23:06.313Z,2.30
2023-03-04T20:25:33.770Z,2.13
2023-03-04T20:28:01.684Z,2.10
2023-03-04T20:30:29.401Z,1.60
2023-03-04T20:32:57.019Z,2.60
2023-03-04T20:35:24.634Z,2.50
2023-03-04T20:37:52.382Z,2.43
2023-03-04T20:40:19.953Z,2.57
2023-03-04T20:42:47.560Z,2.30
2023-03-04T20:45:15.112Z,2.10
2023-03-04T20:47:42.730Z,2.73
2023-03-04T20:50:10.595Z,2.33
2023-03-04T20:52:38.302Z,3.00
2023-03-04T20:55:05.992Z,1.83
2023-03-04T20:57:33.528Z,1.70
2023-03-04T21:00:01.043Z,2.10
2023-03-04T21:02:28.657Z,2.33
2023-03-04T21:04:56.140Z,1.80
2023-03-04T21:07:23.833Z,2.17
2023-03-04T21:09:51.368Z,2.13
2023-03-04T21:12:19.063Z,2.40
2023-03-04T21:14:46.554Z,1.80
2023-03-04T21:17:14.228Z,2.57
2023-03-04T21:19:42.587Z,2.50
2023-03-04T21:22:14.970Z,2.70
2023-03-04T21:24:44.402Z,2.40
2023-03-04T21:27:12.134Z,2.57
2023-03-04T21:29:40.195Z,2.40
2023-03-04T21:32:24.238Z,2.53
2023-03-04T21:34:53.076Z,2.60
2023-03-04T21:37:21.237Z,1.97
2023-03-04T21:39:48.805Z,1.73
2023-03-04T21:42:16.351Z,1.93
2023-03-04T21:44:51.992Z,2.53
2023-03-04T21:47:20.700Z,1.60
2023-03-04T21:49:48.259Z,1.83
2023-03-04T21:52:15.914Z,1.73
2023-03-04T21:54:43.632Z,2.33
2023-03-04T21:57:11.377Z,2.43
2023-03-04T21:59:39.383Z,1.73
2023-03-04T22:02:21.213Z,1.80
2023-03-04T22:04:48.947Z,3.70
2023-03-04T22:07:16.767Z,1.93
2023-03-04T22:09:44.392Z,2.13
2023-03-04T22:12:11.990Z,1.77
2023-03-04T22:14:39.551Z,1.90
2023-03-04T22:17:07.289Z,1.60
2023-03-04T22:19:34.868Z,2.53
2023-03-04T22:22:02.404Z,2.20
2023-03-04T22:24:29.950Z,2.33
2023-03-04T22:26:57.531Z,2.23
2023-03-04T22:29:25.141Z,2.73
2023-03-04T22:31:52.768Z,2.70
2023-03-04T22:34:20.397Z,2.20
2023-03-04T22:36:48.125Z,2.87
2023-03-04T22:39:17.046Z,2.90
2023-03-04T22:41:44.541Z,2.63
2023-03-04T22:44:12.081Z,2.53
2023-03-04T22:46:39.835Z,2.70
2023-03-04T22:49:09.174Z,2.60
2023-03-04T22:51:37.042Z,2.70
2023-03-04T22:54:04.698Z,2.57
2023-03-04T22:56:32.283Z,2.80
2023-03-04T22:58:59.824Z,2.83
2023-03-04T23:01:27.407Z,3.10
2023-03-04T23:03:54.924Z,2.70
2023-03-04T23:06:23.949Z,3.50
2023-03-04T23:08:51.924Z,3.10
2023-03-04T23:11:20.680Z,3.07
2023-03-04T23:13:48.349Z,2.60
2023-03-04T23:16:16.568Z,2.50
2023-03-04T23:18:44.620Z,2.37
2023-03-04T23:21:17.306Z,2.60
2023-03-04T23:23:44.846Z,2.47
2023-03-04T23:26:31.662Z,2.03
2023-03-04T23:28:59.553Z,2.70
2023-03-04T23:31:27.187Z,2.57
2023-03-04T23:33:55.092Z,1.63
2023-03-04T23:36:22.686Z,2.63
2023-03-04T23:38:50.235Z,2.60
2023-03-04T23:41:20.142Z,2.53
2023-03-04T23:43:48.217Z,2.50
2023-03-04T23:46:16.153Z,1.90
2023-03-04T23:48:44.251Z,2.33
2023-03-04T23:51:11.829Z,2.20
2023-03-04T23:53:39.396Z,2.83
2023-03-04T23:56:11.102Z,2.20
2023-03-04T23:58:38.959Z,1.97
